Time,TemperatureF,DewpointF,PressureIn,WindDirection,WindDirectionDegrees,WindSpeedMPH,WindSpeedGustMPH,Humidity,HourlyPrecipIn,Conditions,Clouds,dailyrainin,SoftwareType,DateUTC
2013-02-08 00:02:00,31.0,30.0,30.24,NE,45,0.0,3.0,95,0.00,,,0.05,,2013-02-08 05:02:00,
2013-02-08 00:12:00,31.0,30.0,30.24,NE,45,0.0,3.0,95,0.00,,,0.05,,2013-02-08 05:12:00,
2013-02-08 00:22:00,31.0,30.0,30.24,NE,45,0.0,3.0,95,0.00,,,0.05,,2013-02-08 05:22:00,
2013-02-08 00:32:00,31.0,30.0,30.24,NE,45,0.0,3.0,95,0.00,,,0.05,,2013-02-08 05:32:00,
2013-02-08 00:40:00,32.0,31.0,30.22,South,180,0.0,1.0,96,0.03,,,0.09,,2013-02-08 05:40:00,
2013-02-08 01:02:00,32.0,31.0,30.22,South,180,0.0,1.0,96,0.03,,,0.09,,2013-02-08 06:02:00,
2013-02-08 01:11:00,32.0,31.0,30.22,South,180,0.0,1.0,96,0.03,,,0.09,,2013-02-08 06:11:00,
2013-02-08 01:22:00,32.0,31.0,30.22,South,180,0.0,1.0,96,0.03,,,0.09,,2013-02-08 06:22:00,
2013-02-08 01:32:00,32.0,31.0,30.22,South,180,0.0,1.0,96,0.03,,,0.09,,2013-02-08 06:32:00,
2013-02-08 02:41:00,31.0,31.0,30.14,North,0,255.0,255.0,100,0.00,,,0.10,,2013-02-08 07:41:00,
2013-02-08 03:01:00,31.0,31.0,30.14,North,0,255.0,255.0,100,0.00,,,0.10,,2013-02-08 08:01:00,
2013-02-08 03:11:00,31.0,31.0,30.14,North,0,255.0,255.0,100,0.00,,,0.10,,2013-02-08 08:11:00,
2013-02-08 03:22:00,31.0,31.0,30.14,North,0,255.0,255.0,100,0.00,,,0.10,,2013-02-08 08:22:00,
2013-02-08 03:32:00,31.0,31.0,30.14,North,0,255.0,255.0,100,0.00,,,0.10,,2013-02-08 08:32:00,
2013-02-08 03:40:00,31.0,31.0,30.11,North,0,255.0,255.0,100,0.00,,,0.10,,2013-02-08 08:40:00,
2013-02-08 04:03:00,31.0,31.0,30.11,North,0,255.0,255.0,100,0.00,,,0.10,,2013-02-08 09:03:00,
2013-02-08 04:11:00,31.0,31.0,30.11,North,0,255.0,255.0,100,0.00,,,0.10,,2013-02-08 09:11:00,
2013-02-08 04:21:00,31.0,31.0,30.11,North,0,255.0,255.0,100,0.00,,,0.10,,2013-02-08 09:21:00,
2013-02-08 04:32:00,31.0,31.0,30.11,North,0,255.0,255.0,100,0.00,,,0.10,,2013-02-08 09:32:00,
2013-02-08 04:40:00,31.0,31.0,30.10,North,0,255.0,255.0,100,0.00,,,0.10,,2013-02-08 09:40:00,
2013-02-08 05:01:00,31.0,31.0,30.10,North,0,255.0,255.0,100,0.00,,,0.10,,2013-02-08 10:01:00,
2013-02-08 05:12:00,31.0,31.0,30.10,North,0,255.0,255.0,100,0.00,,,0.10,,2013-02-08 10:12:00,
2013-02-08 05:22:00,31.0,31.0,30.10,North,0,255.0,255.0,100,0.00,,,0.10,,2013-02-08 10:22:00,
2013-02-08 05:32:00,31.0,31.0,30.10,North,0,255.0,255.0,100,0.00,,,0.10,,2013-02-08 10:32:00,
2013-02-08 05:41:00,31.0,31.0,30.09,North,0,255.0,255.0,100,0.00,,,0.10,,2013-02-08 10:41:00,
2013-02-08 06:02:00,31.0,31.0,30.09,North,0,255.0,255.0,100,0.00,,,0.10,,2013-02-08 11:02:00,
2013-02-08 06:11:00,31.0,31.0,30.09,North,0,255.0,255.0,100,0.00,,,0.10,,2013-02-08 11:11:00,
2013-02-08 06:22:00,31.0,31.0,30.09,North,0,255.0,255.0,100,0.00,,,0.10,,2013-02-08 11:22:00,
2013-02-08 06:32:00,31.0,31.0,30.09,North,0,255.0,255.0,100,0.00,,,0.10,,2013-02-08 11:32:00,
2013-02-08 06:41:00,31.0,31.0,30.09,North,0,255.0,255.0,100,0.00,,,0.10,,2013-02-08 11:41:00,
2013-02-08 07:02:00,31.0,31.0,30.09,North,0,255.0,255.0,100,0.00,,,0.10,,2013-02-08 12:02:00,
2013-02-08 07:11:00,31.0,31.0,30.09,North,0,255.0,255.0,100,0.00,,,0.10,,2013-02-08 12:11:00,
2013-02-08 07:22:00,31.0,31.0,30.09,North,0,255.0,255.0,100,0.00,,,0.10,,2013-02-08 12:22:00,
2013-02-08 07:33:00,31.0,31.0,30.09,North,0,255.0,255.0,100,0.00,,,0.10,,2013-02-08 12:33:00,
2013-02-08 07:41:00,31.0,31.0,30.08,North,0,255.0,255.0,100,0.00,,,0.10,,2013-02-08 12:41:00,
2013-02-08 08:02:00,31.0,31.0,30.08,North,0,255.0,255.0,100,0.00,,,0.10,,2013-02-08 13:02:00,
2013-02-08 08:12:00,31.0,31.0,30.08,North,0,255.0,255.0,100,0.00,,,0.10,,2013-02-08 13:12:00,
2013-02-08 08:22:00,31.0,31.0,30.08,North,0,255.0,255.0,100,0.00,,,0.10,,2013-02-08 13:22:00,
2013-02-08 08:32:00,31.0,31.0,30.08,North,0,255.0,255.0,100,0.00,,,0.10,,2013-02-08 13:32:00,
2013-02-08 08:41:00,30.0,29.0,30.08,NNW,338,0.0,1.0,97,0.00,,,0.10,,2013-02-08 13:41:00,
2013-02-08 09:02:00,30.0,29.0,30.08,NNW,338,0.0,1.0,97,0.00,,,0.10,,2013-02-08 14:02:00,
2013-02-08 09:11:00,30.0,29.0,30.08,NNW,338,0.0,1.0,97,0.00,,,0.10,,2013-02-08 14:11:00,
2013-02-08 09:22:00,30.0,29.0,30.08,NNW,338,0.0,1.0,97,0.00,,,0.10,,2013-02-08 14:22:00,
2013-02-08 09:32:00,30.0,29.0,30.08,NNW,338,0.0,1.0,97,0.00,,,0.10,,2013-02-08 14:32:00,
2013-02-08 10:41:00,32.0,31.0,30.06,NW,315,0.0,1.0,97,0.01,,,0.11,,2013-02-08 15:41:00,
2013-02-08 11:02:00,32.0,31.0,30.06,NW,315,0.0,1.0,97,0.01,,,0.11,,2013-02-08 16:02:00,
2013-02-08 11:11:00,32.0,31.0,30.06,NW,315,0.0,1.0,97,0.01,,,0.11,,2013-02-08 16:11:00,
2013-02-08 11:22:00,32.0,31.0,30.06,NW,315,0.0,1.0,97,0.01,,,0.11,,2013-02-08 16:22:00,
2013-02-08 11:32:00,32.0,31.0,30.06,NW,315,0.0,1.0,97,0.01,,,0.11,,2013-02-08 16:32:00,
2013-02-08 11:41:00,34.0,33.0,30.04,NW,315,0.0,3.0,97,0.08,,,0.19,,2013-02-08 16:41:00,
2013-02-08 12:04:00,34.0,33.0,30.04,NW,315,0.0,3.0,97,0.08,,,0.19,,2013-02-08 17:04:00,
2013-02-08 12:13:00,34.0,33.0,30.04,NW,315,0.0,3.0,97,0.08,,,0.19,,2013-02-08 17:13:00,
2013-02-08 12:23:00,34.0,33.0,30.04,NW,315,0.0,3.0,97,0.08,,,0.19,,2013-02-08 17:23:00,
2013-02-08 12:33:00,34.0,33.0,30.04,NW,315,0.0,3.0,97,0.08,,,0.19,,2013-02-08 17:33:00,
2013-02-08 12:40:00,35.0,34.0,30.01,NW,315,0.0,7.0,97,0.06,,,0.25,,2013-02-08 17:40:00,
2013-02-08 13:03:00,35.0,34.0,30.01,NW,315,0.0,7.0,97,0.06,,,0.25,,2013-02-08 18:03:00,
2013-02-08 13:12:00,35.0,34.0,30.01,NW,315,0.0,7.0,97,0.06,,,0.25,,2013-02-08 18:12:00,
2013-02-08 13:25:00,35.0,34.0,30.01,NW,315,0.0,7.0,97,0.06,,,0.25,,2013-02-08 18:25:00,
2013-02-08 13:35:00,35.0,34.0,30.01,NW,315,0.0,7.0,97,0.06,,,0.25,,2013-02-08 18:35:00,
2013-02-08 13:40:00,39.0,38.0,30.01,NW,315,1.0,6.0,98,0.07,,,0.32,,2013-02-08 18:40:00,
2013-02-08 14:02:00,39.0,38.0,30.01,NW,315,1.0,6.0,98,0.07,,,0.32,,2013-02-08 19:02:00,
2013-02-08 14:12:00,39.0,38.0,30.01,NW,315,1.0,6.0,98,0.07,,,0.32,,2013-02-08 19:12:00,
2013-02-08 14:22:00,39.0,38.0,30.01,NW,315,1.0,6.0,98,0.07,,,0.32,,2013-02-08 19:22:00,
2013-02-08 14:32:00,39.0,38.0,30.01,NW,315,1.0,6.0,98,0.07,,,0.32,,2013-02-08 19:32:00,
2013-02-08 14:40:00,44.0,39.0,30.00,NW,315,6.0,12.0,82,0.09,,,0.41,,2013-02-08 19:40:00,
2013-02-08 15:02:00,44.0,39.0,30.00,NW,315,6.0,12.0,82,0.09,,,0.41,,2013-02-08 20:02:00,
2013-02-08 15:12:00,44.0,39.0,30.00,NW,315,6.0,12.0,82,0.09,,,0.41,,2013-02-08 20:12:00,
2013-02-08 15:22:00,44.0,39.0,30.00,NW,315,6.0,12.0,82,0.09,,,0.41,,2013-02-08 20:22:00,
2013-02-08 15:32:00,44.0,39.0,30.00,NW,315,6.0,12.0,82,0.09,,,0.41,,2013-02-08 20:32:00,
2013-02-08 15:40:00,44.0,36.0,30.01,NW,315,6.0,13.0,72,0.08,,,0.48,,2013-02-08 20:40:00,
2013-02-08 16:02:00,44.0,36.0,30.01,NW,315,6.0,13.0,72,0.08,,,0.48,,2013-02-08 21:02:00,
2013-02-08 16:12:00,44.0,36.0,30.01,NW,315,6.0,13.0,72,0.08,,,0.48,,2013-02-08 21:12:00,
2013-02-08 16:22:00,44.0,36.0,30.01,NW,315,6.0,13.0,72,0.08,,,0.48,,2013-02-08 21:22:00,
2013-02-08 16:33:00,44.0,36.0,30.01,NW,315,6.0,13.0,72,0.08,,,0.48,,2013-02-08 21:33:00,
2013-02-08 16:40:00,37.0,31.0,30.05,NNW,338,5.0,17.0,78,0.01,,,0.50,,2013-02-08 21:40:00,
2013-02-08 17:02:00,37.0,31.0,30.05,NNW,338,5.0,17.0,78,0.01,,,0.50,,2013-02-08 22:02:00,
2013-02-08 17:12:00,37.0,31.0,30.05,NNW,338,5.0,17.0,78,0.01,,,0.50,,2013-02-08 22:12:00,
2013-02-08 17:22:00,37.0,31.0,30.05,NNW,338,5.0,17.0,78,0.01,,,0.50,,2013-02-08 22:22:00,
2013-02-08 17:32:00,37.0,31.0,30.05,NNW,338,5.0,17.0,78,0.01,,,0.50,,2013-02-08 22:32:00,
2013-02-08 17:40:00,34.0,28.0,30.08,NNW,338,5.0,14.0,80,0.00,,,0.50,,2013-02-08 22:40:00,
2013-02-08 18:02:00,34.0,28.0,30.08,NNW,338,5.0,14.0,80,0.00,,,0.50,,2013-02-08 23:02:00,
2013-02-08 18:12:00,34.0,28.0,30.08,NNW,338,5.0,14.0,80,0.00,,,0.50,,2013-02-08 23:12:00,
2013-02-08 18:22:00,34.0,28.0,30.08,NNW,338,5.0,14.0,80,0.00,,,0.50,,2013-02-08 23:22:00,
2013-02-08 18:32:00,34.0,28.0,30.08,NNW,338,5.0,14.0,80,0.00,,,0.50,,2013-02-08 23:32:00,
2013-02-08 18:40:00,33.0,28.0,30.11,NNW,338,5.0,16.0,81,0.00,,,0.49,,2013-02-08 23:40:00,
2013-02-08 19:02:00,33.0,28.0,30.11,NNW,338,5.0,16.0,81,0.00,,,0.49,,2013-02-09 00:02:00,
2013-02-08 19:12:00,33.0,28.0,30.11,NNW,338,5.0,16.0,81,0.00,,,0.49,,2013-02-09 00:12:00,
2013-02-08 19:22:00,33.0,28.0,30.11,NNW,338,5.0,16.0,81,0.00,,,0.49,,2013-02-09 00:22:00,
2013-02-08 19:32:00,33.0,28.0,30.11,NNW,338,5.0,16.0,81,0.00,,,0.49,,2013-02-09 00:32:00,
2013-02-08 19:40:00,32.0,26.0,30.14,NNW,338,3.0,12.0,78,0.00,,,0.47,,2013-02-09 00:40:00,
2013-02-08 20:02:00,32.0,26.0,30.14,NNW,338,3.0,12.0,78,0.00,,,0.47,,2013-02-09 01:02:00,
2013-02-08 20:12:00,32.0,26.0,30.14,NNW,338,3.0,12.0,78,0.00,,,0.47,,2013-02-09 01:12:00,
2013-02-08 20:22:00,32.0,26.0,30.14,NNW,338,3.0,12.0,78,0.00,,,0.47,,2013-02-09 01:22:00,
2013-02-08 20:32:00,32.0,26.0,30.14,NNW,338,3.0,12.0,78,0.00,,,0.47,,2013-02-09 01:32:00,
2013-02-08 21:40:00,32.0,26.0,30.19,NW,315,6.0,15.0,78,0.00,,,0.45,,2013-02-09 02:40:00,
2013-02-08 22:02:00,32.0,26.0,30.19,NW,315,6.0,15.0,78,0.00,,,0.45,,2013-02-09 03:02:00,
2013-02-08 22:11:00,32.0,26.0,30.19,NW,315,6.0,15.0,78,0.00,,,0.45,,2013-02-09 03:11:00,
2013-02-08 22:22:00,32.0,26.0,30.19,NW,315,6.0,15.0,78,0.00,,,0.45,,2013-02-09 03:22:00,
2013-02-08 22:32:00,32.0,26.0,30.19,NW,315,6.0,15.0,78,0.00,,,0.45,,2013-02-09 03:32:00,